createdAt,value
2022-10-04T00:01:22.250Z,3.95
2022-10-04T00:04:20.350Z,3.88
2022-10-04T00:06:59.622Z,4.18
2022-10-04T00:09:32.438Z,4.28
2022-10-04T00:11:59.777Z,3.85
2022-10-04T00:14:31.000Z,4.45
2022-10-04T00:16:59.421Z,4.43
2022-10-04T00:19:47.078Z,3.60
2022-10-04T00:22:18.317Z,3.90
2022-10-04T00:25:23.167Z,4.40
2022-10-04T00:28:34.750Z,5.00
2022-10-04T00:31:24.659Z,4.57
2022-10-04T00:34:03.433Z,4.25
2022-10-04T00:36:37.536Z,4.85
2022-10-04T00:39:06.882Z,4.13
2022-10-04T00:41:48.533Z,4.20
2022-10-04T00:44:42.752Z,4.15
2022-10-04T00:47:26.314Z,4.28
2022-10-04T00:50:01.683Z,3.90
2022-10-04T00:52:33.943Z,4.25
2022-10-04T00:55:03.809Z,4.20
2022-10-04T00:57:33.984Z,4.68
2022-10-04T01:00:11.571Z,5.00
2022-10-04T01:02:46.891Z,5.28
2022-10-04T01:05:30.675Z,5.10
2022-10-04T01:08:14.680Z,4.80
2022-10-04T01:10:51.786Z,4.30
2022-10-04T01:13:22.266Z,5.15
2022-10-04T01:15:51.660Z,5.85
2022-10-04T01:18:21.274Z,5.72
2022-10-04T01:20:54.875Z,5.95
2022-10-04T01:23:34.748Z,5.72
2022-10-04T01:26:01.489Z,5.47
2022-10-04T01:28:28.043Z,5.70
2022-10-04T01:34:40.978Z,5.85
2022-10-04T01:37:07.449Z,5.88
2022-10-04T01:39:33.861Z,5.93
2022-10-04T01:42:14.531Z,5.30
2022-10-04T01:45:05.120Z,5.63
2022-10-04T01:47:43.576Z,5.75
2022-10-04T01:50:27.103Z,5.75
2022-10-04T01:53:08.465Z,4.82
2022-10-04T01:55:36.315Z,5.05
2022-10-04T01:58:13.636Z,5.93
2022-10-04T02:00:47.983Z,5.88
2022-10-04T02:03:22.304Z,5.85
2022-10-04T02:05:54.630Z,5.20
2022-10-04T02:08:27.753Z,7.40
2022-10-04T02:10:54.925Z,7.43
2022-10-04T02:13:22.039Z,7.43
2022-10-04T02:15:49.520Z,8.65
2022-10-04T02:18:18.744Z,8.45
2022-10-04T02:20:46.260Z,9.38
2022-10-04T02:23:12.948Z,9.18
2022-10-04T02:25:39.371Z,9.60
2022-10-04T02:28:10.844Z,8.80
2022-10-04T02:30:43.851Z,8.95
2022-10-04T02:33:11.103Z,8.50
2022-10-04T02:35:43.716Z,7.88
2022-10-04T02:40:57.070Z,7.68
2022-10-04T02:43:33.291Z,7.85
2022-10-04T02:46:13.680Z,7.05
2022-10-04T02:48:46.184Z,7.55
2022-10-04T02:51:34.257Z,6.80
2022-10-04T02:54:03.975Z,7.60
2022-10-04T02:56:31.595Z,6.55
2022-10-04T02:59:01.841Z,6.55
2022-10-04T03:01:56.442Z,7.47
2022-10-04T03:04:25.652Z,8.23
2022-10-04T03:06:52.527Z,8.18
2022-10-04T03:09:28.808Z,7.90
2022-10-04T03:11:56.400Z,8.10
2022-10-04T03:14:25.201Z,7.65
2022-10-04T03:16:54.822Z,7.82
2022-10-04T03:19:23.085Z,7.32
2022-10-04T03:21:52.240Z,6.88
2022-10-04T03:24:20.830Z,7.28
2022-10-04T03:26:50.437Z,8.02
2022-10-04T03:29:18.201Z,6.50
2022-10-04T03:31:50.148Z,7.20
2022-10-04T03:34:22.230Z,4.82
2022-10-04T03:36:50.068Z,7.00
2022-10-04T03:39:46.374Z,6.50
2022-10-04T03:42:18.995Z,6.70
2022-10-04T03:47:14.972Z,6.45
2022-10-04T03:49:42.260Z,7.10
2022-10-04T03:52:17.960Z,6.90
2022-10-04T03:54:44.728Z,6.28
2022-10-04T03:57:11.564Z,7.15
2022-10-04T03:59:38.103Z,6.93
2022-10-04T04:02:16.268Z,7.15
2022-10-04T04:04:50.007Z,6.43
2022-10-04T04:07:19.886Z,5.80
2022-10-04T04:10:05.495Z,6.93
2022-10-04T04:12:40.740Z,5.40
2022-10-04T04:15:11.595Z,5.45
2022-10-04T04:17:41.681Z,5.80
2022-10-04T04:20:27.349Z,5.40
2022-10-04T04:22:59.184Z,5.95
2022-10-04T04:25:27.565Z,5.63
2022-10-04T04:28:01.844Z,5.38
2022-10-04T04:30:30.229Z,5.75
2022-10-04T04:32:57.840Z,5.13
2022-10-04T04:35:31.128Z,4.93
2022-10-04T04:38:18.105Z,5.50
2022-10-04T04:40:44.735Z,4.85
2022-10-04T04:43:14.992Z,4.68
2022-10-04T04:45:41.650Z,4.57
2022-10-04T04:48:08.797Z,4.40
2022-10-04T04:50:37.208Z,4.38
2022-10-04T04:53:08.454Z,5.05
2022-10-04T04:55:56.717Z,5.78
2022-10-04T04:58:37.311Z,7.82
2022-10-04T05:01:07.082Z,8.40
2022-10-04T05:03:34.145Z,8.18
2022-10-04T05:06:02.926Z,7.70
2022-10-04T05:08:30.790Z,7.28
2022-10-04T05:11:09.268Z,6.18
2022-10-04T05:13:45.978Z,5.60
2022-10-04T05:16:16.232Z,5.20
2022-10-04T05:18:42.803Z,5.40
2022-10-04T05:21:14.418Z,5.18
2022-10-04T05:23:40.868Z,5.43
2022-10-04T05:26:11.216Z,5.40
2022-10-04T05:28:37.754Z,5.53
2022-10-04T05:31:16.052Z,5.32
2022-10-04T05:33:55.554Z,5.40
2022-10-04T05:36:35.519Z,5.57
2022-10-04T05:39:27.741Z,5.10
2022-10-04T05:42:00.201Z,5.80
2022-10-04T05:47:00.225Z,5.90
2022-10-04T05:49:31.178Z,6.05
2022-10-04T05:52:03.479Z,6.28
2022-10-04T05:54:32.849Z,5.50
2022-10-04T05:57:15.729Z,5.72
2022-10-04T06:00:09.460Z,5.63
2022-10-04T06:03:01.938Z,5.32
2022-10-04T06:05:40.859Z,5.18
2022-10-04T06:08:32.258Z,5.50
2022-10-04T06:11:13.816Z,4.82
2022-10-04T06:13:59.416Z,4.97
2022-10-04T06:16:50.475Z,5.90
2022-10-04T06:19:32.575Z,5.45
2022-10-04T06:22:18.827Z,7.03
2022-10-04T06:24:49.515Z,6.20
2022-10-04T06:27:35.956Z,6.80
2022-10-04T06:30:15.018Z,6.10
2022-10-04T06:33:19.957Z,6.43
2022-10-04T06:35:52.117Z,6.00
2022-10-04T06:38:37.347Z,6.63
2022-10-04T06:41:13.988Z,5.57
2022-10-04T06:43:59.568Z,6.93
2022-10-04T06:46:38.414Z,6.30
2022-10-04T06:49:20.804Z,6.18
2022-10-04T06:52:28.653Z,7.10
2022-10-04T06:55:20.172Z,6.00
2022-10-04T06:58:10.869Z,5.97
2022-10-04T07:00:55.665Z,6.30
2022-10-04T07:03:28.562Z,5.80
2022-10-04T07:05:59.447Z,5.60
2022-10-04T07:08:41.780Z,6.68
2022-10-04T07:11:15.460Z,5.57
2022-10-04T07:13:51.130Z,4.80
2022-10-04T07:16:22.704Z,5.70
2022-10-04T07:19:17.339Z,5.18
2022-10-04T07:22:03.291Z,5.38
2022-10-04T07:24:51.934Z,5.25
2022-10-04T07:27:30.977Z,5.55
2022-10-04T07:30:00.674Z,4.85
2022-10-04T07:32:33.040Z,4.63
2022-10-04T07:35:02.454Z,5.00
2022-10-04T07:37:32.038Z,4.95
2022-10-04T07:40:06.594Z,5.05
2022-10-04T07:42:45.984Z,5.00
2022-10-04T07:45:32.730Z,4.70
2022-10-04T07:48:17.649Z,5.18
2022-10-04T07:51:09.497Z,5.07
2022-10-04T07:53:43.822Z,4.28
2022-10-04T07:56:28.061Z,4.82
2022-10-04T07:59:28.814Z,4.50
2022-10-04T08:02:20.234Z,5.00
2022-10-04T08:05:06.952Z,4.72
2022-10-04T08:07:52.137Z,4.93
2022-10-04T08:10:35.578Z,4.88
2022-10-04T08:13:28.315Z,5.10
2022-10-04T08:15:59.393Z,4.55
2022-10-04T08:18:37.937Z,4.70
2022-10-04T08:21:09.169Z,5.00
2022-10-04T08:23:48.056Z,5.07
2022-10-04T08:26:35.691Z,4.53
2022-10-04T08:29:42.546Z,4.60
2022-10-04T08:32:08.923Z,4.78
2022-10-04T08:34:57.614Z,4.10
2022-10-04T08:37:37.852Z,4.20
2022-10-04T08:40:13.510Z,4.40
2022-10-04T08:43:13.829Z,4.03
2022-10-04T08:46:25.395Z,4.20
2022-10-04T08:49:10.270Z,4.22
2022-10-04T08:52:01.042Z,4.20
2022-10-04T08:54:36.407Z,3.95
2022-10-04T08:57:16.081Z,4.30
2022-10-04T09:00:07.540Z,4.28
2022-10-04T09:03:05.138Z,3.92
2022-10-04T09:05:40.754Z,4.10
2022-10-04T09:08:34.331Z,5.35
2022-10-04T09:11:06.573Z,4.82
2022-10-04T09:13:49.156Z,4.30
2022-10-04T09:16:26.417Z,4.10
2022-10-04T09:19:07.129Z,4.40
2022-10-04T09:22:11.517Z,4.60
2022-10-04T09:25:09.100Z,4.55
2022-10-04T09:27:56.693Z,4.43
2022-10-04T09:30:33.098Z,4.10
2022-10-04T09:33:20.760Z,4.20
2022-10-04T09:36:03.068Z,4.20
2022-10-04T09:39:25.107Z,4.28
2022-10-04T09:42:04.367Z,4.20
2022-10-04T09:44:33.913Z,4.40
2022-10-04T09:47:31.873Z,4.22
2022-10-04T09:50:35.540Z,4.05
2022-10-04T09:53:31.007Z,4.25
2022-10-04T09:56:04.326Z,4.20
2022-10-04T09:58:46.362Z,4.30
2022-10-04T10:01:29.387Z,3.47
2022-10-04T10:04:00.921Z,3.65
2022-10-04T10:06:46.229Z,3.05
2022-10-04T10:09:44.236Z,3.05
2022-10-04T10:12:44.442Z,2.83
2022-10-04T10:15:48.382Z,2.08
2022-10-04T10:18:44.037Z,2.35
2022-10-04T10:21:18.872Z,1.95
2022-10-04T10:24:01.495Z,1.98
2022-10-04T10:27:04.352Z,2.03
2022-10-04T10:29:40.430Z,2.00
2022-10-04T10:32:44.311Z,1.77
2022-10-04T10:35:38.870Z,2.10
2022-10-04T10:38:32.111Z,1.95
2022-10-04T10:41:23.394Z,2.08
2022-10-04T10:43:59.008Z,2.13
2022-10-04T10:46:50.116Z,2.00
2022-10-04T10:49:48.570Z,2.08
2022-10-04T10:52:41.094Z,2.15
2022-10-04T10:55:22.381Z,2.22
2022-10-04T10:58:30.263Z,2.03
2022-10-04T11:01:29.729Z,2.13
2022-10-04T11:04:14.373Z,2.63
2022-10-04T11:07:05.311Z,2.20
2022-10-04T11:09:38.940Z,2.25
2022-10-04T11:12:11.235Z,2.75
2022-10-04T11:14:51.708Z,1.95
2022-10-04T11:17:56.275Z,2.33
2022-10-04T11:20:36.211Z,2.58
2022-10-04T11:23:21.416Z,2.15
2022-10-04T11:25:57.230Z,2.17
2022-10-04T11:28:36.255Z,2.25
2022-10-04T11:31:32.180Z,2.10
2022-10-04T11:34:37.786Z,2.33
2022-10-04T11:37:31.247Z,2.40
2022-10-04T11:40:16.367Z,2.28
2022-10-04T11:43:20.050Z,2.42
2022-10-04T11:46:22.634Z,2.35
2022-10-04T11:48:57.868Z,2.72
2022-10-04T11:52:02.163Z,2.60
2022-10-04T11:54:50.790Z,2.33
2022-10-04T11:57:49.016Z,2.25
2022-10-04T12:00:26.243Z,2.55
2022-10-04T12:03:27.835Z,2.55
2022-10-04T12:06:20.150Z,2.63
2022-10-04T12:09:11.874Z,2.53
2022-10-04T12:12:10.567Z,1.95
2022-10-04T12:14:58.426Z,2.35
2022-10-04T12:18:05.137Z,2.03
2022-10-04T12:21:03.473Z,2.08
2022-10-04T12:23:45.115Z,2.45
2022-10-04T12:26:19.389Z,2.07
2022-10-04T12:29:04.361Z,2.13
2022-10-04T12:31:32.239Z,2.15
2022-10-04T12:34:14.539Z,2.33
2022-10-04T12:37:18.695Z,2.45
2022-10-04T12:40:33.247Z,2.78
2022-10-04T12:43:10.008Z,2.25
2022-10-04T12:45:57.045Z,2.20
2022-10-04T12:48:44.231Z,2.58
2022-10-04T12:51:25.844Z,2.00
2022-10-04T12:54:10.892Z,2.87
2022-10-04T12:56:52.107Z,2.22
2022-10-04T12:59:34.129Z,2.70
2022-10-04T13:02:21.477Z,2.20
2022-10-04T13:04:53.134Z,2.13
2022-10-04T13:07:28.706Z,2.03
2022-10-04T13:10:25.240Z,2.40
2022-10-04T13:13:05.645Z,2.72
2022-10-04T13:18:46.047Z,2.33
2022-10-04T13:21:38.595Z,2.67
2022-10-04T13:26:31.174Z,2.47
2022-10-04T13:29:16.861Z,2.42
2022-10-04T13:31:59.133Z,2.70
2022-10-04T13:37:12.939Z,2.45
2022-10-04T13:40:04.158Z,2.40
2022-10-04T13:43:04.682Z,2.65
2022-10-04T13:45:49.816Z,2.80
2022-10-04T13:48:51.551Z,2.85
2022-10-04T13:51:43.286Z,2.42
2022-10-04T13:54:31.427Z,2.20
2022-10-04T13:56:57.810Z,2.30
2022-10-04T13:59:34.590Z,2.65
2022-10-04T14:02:22.626Z,2.30
2022-10-04T14:05:10.945Z,2.20
2022-10-04T14:07:46.354Z,2.20
2022-10-04T14:10:42.041Z,2.53
2022-10-04T14:13:39.146Z,2.05
2022-10-04T14:16:34.265Z,2.53
2022-10-04T14:19:38.296Z,2.60
2022-10-04T14:22:41.605Z,2.65
2022-10-04T14:25:42.873Z,2.42
2022-10-04T14:28:31.024Z,2.60
2022-10-04T14:31:19.923Z,2.42
2022-10-04T14:34:10.907Z,2.33
2022-10-04T14:37:00.981Z,2.15
2022-10-04T14:39:46.099Z,2.13
2022-10-04T14:42:23.841Z,2.35
2022-10-04T14:45:07.344Z,2.33
2022-10-04T14:47:36.727Z,2.45
2022-10-04T14:50:24.851Z,2.13
2022-10-04T14:53:28.510Z,2.65
2022-10-04T14:56:20.928Z,2.15
2022-10-04T14:58:53.388Z,2.10
2022-10-04T15:01:23.779Z,2.03
2022-10-04T15:04:11.120Z,2.60
2022-10-04T15:06:57.536Z,2.35
2022-10-04T15:09:48.320Z,2.45
2022-10-04T15:13:08.858Z,2.30
2022-10-04T15:15:50.884Z,2.50
2022-10-04T15:18:38.686Z,2.47
2022-10-04T15:21:21.282Z,2.00
2022-10-04T15:23:55.256Z,2.33
2022-10-04T15:26:21.602Z,2.00
2022-10-04T15:28:52.446Z,2.50
2022-10-04T15:31:40.507Z,2.03
2022-10-04T15:34:24.206Z,1.85
2022-10-04T15:37:27.805Z,2.20
2022-10-04T15:40:15.687Z,2.20
2022-10-04T15:43:10.224Z,2.30
2022-10-04T15:46:05.990Z,2.45
2022-10-04T15:49:10.938Z,2.60
2022-10-04T15:52:08.318Z,1.92
2022-10-04T15:54:42.590Z,2.40
2022-10-04T15:57:36.926Z,2.33
2022-10-04T16:00:08.325Z,2.40
2022-10-04T16:02:42.289Z,2.67
2022-10-04T16:05:23.131Z,2.35
2022-10-04T16:08:04.299Z,2.50
2022-10-04T16:11:00.465Z,2.50
2022-10-04T16:13:45.524Z,2.72
2022-10-04T16:16:14.914Z,2.45
2022-10-04T16:19:03.406Z,2.60
2022-10-04T16:21:48.050Z,3.10
2022-10-04T16:24:20.446Z,2.53
2022-10-04T16:29:35.473Z,2.70
2022-10-04T16:32:18.566Z,2.80
2022-10-04T16:35:16.282Z,2.78
2022-10-04T16:37:55.415Z,2.90
2022-10-04T16:40:49.460Z,2.60
2022-10-04T16:43:15.741Z,2.70
2022-10-04T16:46:06.509Z,2.90
2022-10-04T16:49:00.704Z,2.75
2022-10-04T16:51:56.888Z,3.00
2022-10-04T16:54:45.532Z,3.17
2022-10-04T16:57:22.362Z,2.90
2022-10-04T16:59:54.763Z,2.80
2022-10-04T17:02:36.249Z,3.67
2022-10-04T17:05:25.861Z,2.88
2022-10-04T17:07:56.874Z,2.95
2022-10-04T17:10:38.398Z,3.17
2022-10-04T17:13:26.499Z,2.75
2022-10-04T17:16:06.572Z,3.30
2022-10-04T17:18:51.138Z,3.20
2022-10-04T17:21:46.092Z,3.20
2022-10-04T17:25:00.020Z,3.20
2022-10-04T17:27:44.889Z,3.42
2022-10-04T17:30:16.601Z,3.40
2022-10-04T17:33:20.105Z,3.20
2022-10-04T17:36:06.913Z,3.40
2022-10-04T17:38:45.507Z,3.20
2022-10-04T17:41:50.592Z,3.40
2022-10-04T17:44:38.706Z,3.63
2022-10-04T17:47:14.450Z,3.20
2022-10-04T17:50:22.144Z,3.40
2022-10-04T17:53:13.710Z,3.35
2022-10-04T17:55:49.956Z,3.50
2022-10-04T17:58:23.997Z,3.20
2022-10-04T18:01:06.580Z,3.30
2022-10-04T18:03:37.239Z,4.13
2022-10-04T18:06:56.194Z,4.00
2022-10-04T18:09:35.545Z,3.75
2022-10-04T18:12:05.344Z,3.38
2022-10-04T18:14:45.948Z,3.10
2022-10-04T18:17:27.040Z,3.33
2022-10-04T18:20:08.681Z,3.60
2022-10-04T18:22:46.557Z,3.10
2022-10-04T18:25:16.962Z,3.10
2022-10-04T18:28:06.821Z,3.40
2022-10-04T18:30:48.969Z,3.60
2022-10-04T18:33:16.727Z,3.67
2022-10-04T18:36:00.888Z,3.53
2022-10-04T18:38:33.219Z,3.20
2022-10-04T18:41:13.053Z,3.70
2022-10-04T18:43:51.173Z,3.40
2022-10-04T18:46:22.698Z,3.78
2022-10-04T18:48:57.332Z,3.35
2022-10-04T18:51:39.922Z,3.65
2022-10-04T18:54:24.216Z,4.07
2022-10-04T18:57:00.635Z,3.50
2022-10-04T19:00:04.360Z,3.63
2022-10-04T19:02:55.835Z,4.07
2022-10-04T19:05:54.539Z,3.97
2022-10-04T19:08:43.970Z,4.18
2022-10-04T19:11:22.211Z,3.65
2022-10-04T19:14:08.306Z,3.65
2022-10-04T19:17:03.157Z,4.10
2022-10-04T19:19:51.837Z,4.00
2022-10-04T19:22:30.695Z,3.95
2022-10-04T19:25:06.114Z,3.97
2022-10-04T19:27:49.287Z,4.22
2022-10-04T19:30:24.916Z,4.15
2022-10-04T19:33:14.071Z,3.65
2022-10-04T19:35:53.529Z,4.03
2022-10-04T19:38:29.441Z,4.07
2022-10-04T19:41:20.829Z,4.13
2022-10-04T19:43:54.844Z,3.60
2022-10-04T19:46:42.208Z,4.00
2022-10-04T19:49:35.915Z,4.32
2022-10-04T19:52:22.238Z,4.53
2022-10-04T19:54:53.653Z,4.50
2022-10-04T19:57:31.876Z,3.80
2022-10-04T19:59:58.321Z,3.85
2022-10-04T20:02:24.769Z,4.32
2022-10-04T20:04:52.133Z,4.05
2022-10-04T20:07:24.891Z,3.83
2022-10-04T20:09:54.302Z,3.70
2022-10-04T20:13:03.331Z,3.42
2022-10-04T20:15:34.684Z,3.50
2022-10-04T20:18:02.928Z,3.83
2022-10-04T20:20:38.717Z,3.55
2022-10-04T20:23:07.522Z,3.33
2022-10-04T20:25:43.120Z,3.42
2022-10-04T20:28:10.873Z,3.90
2022-10-04T20:30:54.688Z,3.70
2022-10-04T20:33:33.469Z,3.55
2022-10-04T20:36:01.788Z,3.88
2022-10-04T20:38:46.934Z,3.65
2022-10-04T20:41:28.800Z,3.55
2022-10-04T20:43:57.648Z,3.80
2022-10-04T20:46:26.133Z,4.00
2022-10-04T20:48:55.780Z,3.50
2022-10-04T20:51:24.056Z,3.78
2022-10-04T20:53:50.974Z,3.70
2022-10-04T20:56:26.825Z,4.05
2022-10-04T20:58:57.808Z,3.95
2022-10-04T21:01:42.375Z,3.95
2022-10-04T21:04:32.008Z,3.40
2022-10-04T21:07:06.461Z,3.38
2022-10-04T21:09:34.354Z,3.72
2022-10-04T21:12:01.953Z,3.78
2022-10-04T21:14:29.516Z,3.65
2022-10-04T21:17:02.184Z,3.53
2022-10-04T21:19:32.728Z,4.07
2022-10-04T21:22:07.419Z,3.92
2022-10-04T21:24:33.739Z,3.75
2022-10-04T21:27:00.115Z,4.00
2022-10-04T21:29:26.529Z,3.70
2022-10-04T21:31:52.959Z,3.60
2022-10-04T21:34:41.052Z,3.58
2022-10-04T21:37:05.779Z,3.85
2022-10-04T21:39:32.213Z,3.70
2022-10-04T21:41:58.590Z,3.65
2022-10-04T21:44:25.055Z,3.58
2022-10-04T21:46:51.424Z,3.67
2022-10-04T21:49:17.867Z,3.60
2022-10-04T21:51:44.249Z,4.07
2022-10-04T21:54:10.715Z,3.75
2022-10-04T21:56:37.127Z,4.20
2022-10-04T21:59:03.885Z,4.25
2022-10-04T22:01:30.380Z,4.25
2022-10-04T22:03:56.823Z,3.97
2022-10-04T22:06:23.335Z,4.10
2022-10-04T22:08:49.835Z,3.58
2022-10-04T22:11:16.326Z,4.45
2022-10-04T22:13:42.950Z,4.20
2022-10-04T22:16:09.419Z,4.07
2022-10-04T22:18:35.950Z,4.22
2022-10-04T22:21:02.524Z,4.50
2022-10-04T22:23:29.699Z,4.90
2022-10-04T22:25:56.394Z,4.53
2022-10-04T22:28:29.868Z,4.00
2022-10-04T22:30:56.716Z,4.65
2022-10-04T22:33:34.724Z,4.50
2022-10-04T22:36:21.013Z,4.65
2022-10-04T22:39:04.114Z,4.95
2022-10-04T22:41:33.572Z,5.00
2022-10-04T22:44:07.193Z,5.15
2022-10-04T22:46:37.390Z,4.95
2022-10-04T22:49:09.676Z,5.07
2022-10-04T22:51:38.528Z,5.15
2022-10-04T22:54:13.953Z,4.80
2022-10-04T22:56:41.218Z,4.82
2022-10-04T22:59:15.553Z,4.88
2022-10-04T23:01:45.699Z,5.00
2022-10-04T23:04:23.309Z,5.22
2022-10-04T23:06:50.692Z,5.18
2022-10-04T23:09:17.225Z,5.03
2022-10-04T23:11:44.163Z,5.32
2022-10-04T23:14:11.016Z,5.57
2022-10-04T23:16:38.774Z,5.50
2022-10-04T23:19:20.762Z,5.50
2022-10-04T23:21:48.639Z,5.13
2022-10-04T23:24:20.401Z,5.30
2022-10-04T23:26:49.800Z,5.30
2022-10-04T23:29:19.453Z,5.57
2022-10-04T23:31:47.175Z,5.70
2022-10-04T23:34:17.450Z,5.43
2022-10-04T23:36:44.858Z,5.75
2022-10-04T23:39:14.164Z,5.60
2022-10-04T23:41:41.675Z,5.65
2022-10-04T23:44:13.068Z,5.70
2022-10-04T23:46:39.610Z,6.13
2022-10-04T23:49:08.011Z,6.07
2022-10-04T23:51:34.380Z,6.20
2022-10-04T23:54:00.828Z,5.93
2022-10-04T23:56:28.293Z,5.60
2022-10-04T23:58:56.373Z,6.10
